Time;durP1;ratioP1;P1;durP2;ratioP2;P2;SDS_P1;SDS_P2;PMS_P1;PMS_P2;Temp;Humidity;BMP_temperature;BMP_pressure;BME280_temperature;BME280_humidity;BME280_pressure;Samples;Min_cycle;Max_cycle;Signal;HPM_P1;HPM_P2
2023/12/31 00:05:28;;;;;;;52.70;30.40;;;;;;;2.55;90.82;98533.71;435227;1257;108361;-41
2023/12/31 00:15:34;;;;;;;49.10;25.50;;;;;;;2.37;90.98;98530.98;435096;1251;99231;-40
2023/12/31 00:25:41;;;;;;;43.60;25.10;;;;;;;2.39;91.05;98532.45;435136;1251;110827;-40
2023/12/31 00:45:55;;;;;;;28.80;16.10;;;;;;;2.58;91.11;98534.70;435259;1251;99258;-39
2023/12/31 00:56:02;;;;;;;24.00;15.70;;;;;;;2.59;91.11;98533.95;435002;1258;495098;-40
2023/12/31 01:06:06;;;;;;;38.50;21.40;;;;;;;2.52;91.26;98532.30;435331;1256;98590;-40
2023/12/31 01:16:11;;;;;;;38.80;24.50;;;;;;;2.40;91.44;98532.51;435410;1254;112228;-40
2023/12/31 01:26:18;;;;;;;36.30;21.40;;;;;;;2.26;91.46;98527.80;435420;1254;108646;-38
2023/12/31 01:36:26;;;;;;;31.40;19.70;;;;;;;2.22;91.50;98526.27;435328;1254;99361;-40
2023/12/31 01:46:35;;;;;;;26.70;17.60;;;;;;;2.28;91.63;98510.16;435192;1254;112298;-40
2023/12/31 01:56:42;;;;;;;;;;;;;;;2.34;91.95;98506.63;435471;1251;106846;-40
2023/12/31 02:06:50;;;;;;;26.00;15.70;;;;;;;2.42;91.98;98508.09;435400;1252;97924;-39
2023/12/31 02:16:56;;;;;;;33.10;19.90;;;;;;;2.36;92.03;98502.06;435299;1254;109817;-41
2023/12/31 02:27:04;;;;;;;34.10;20.70;;;;;;;2.08;91.59;98495.38;435315;1250;98031;-38
2023/12/31 02:37:11;;;;;;;38.60;22.60;;;;;;;1.66;91.14;98500.81;436335;1254;111026;-40
2023/12/31 02:47:18;;;;;;;35.20;22.70;;;;;;;1.45;91.16;98504.64;435282;1257;107938;-40
2023/12/31 02:57:28;;;;;;;35.80;21.60;;;;;;;1.42;91.30;98507.22;435439;1256;99272;-39
2023/12/31 03:07:36;;;;;;;44.80;27.40;;;;;;;1.51;91.90;98513.19;435195;1266;111503;-40
2023/12/31 03:17:42;;;;;;;52.50;28.50;;;;;;;1.48;91.93;98521.31;435240;1251;107130;-41
2023/12/31 03:27:50;;;;;;;49.50;24.20;;;;;;;1.35;92.16;98522.64;435136;1251;99483;-39
2023/12/31 03:37:57;;;;;;;39.30;24.30;;;;;;;1.17;91.92;98530.19;435009;1251;109138;-39
2023/12/31 03:48:05;;;;;;;47.10;30.30;;;;;;;1.06;92.06;98535.61;435179;1251;99332;-39
2023/12/31 03:58:12;;;;;;;55.00;32.90;;;;;;;0.96;92.43;98541.27;435335;1251;112175;-39
2023/12/31 04:08:19;;;;;;;33.60;22.30;;;;;;;0.88;92.50;98539.14;435105;1251;107938;-41
2023/12/31 04:18:26;;;;;;;39.70;24.30;;;;;;;0.81;92.76;98533.20;435215;1257;98700;-38
2023/12/31 04:28:33;;;;;;;40.90;24.80;;;;;;;0.76;92.72;98531.84;435230;1265;108420;-39
2023/12/31 04:38:40;;;;;;;36.80;20.40;;;;;;;0.73;92.98;98528.37;435109;1251;99247;-39
2023/12/31 04:48:49;;;;;;;35.10;21.50;;;;;;;0.75;93.40;98521.79;435143;1256;112248;-39
2023/12/31 04:58:58;;;;;;;41.30;24.20;;;;;;;0.76;93.27;98514.72;435072;1258;108442;-40
2023/12/31 05:09:08;;;;;;;;;;;;;;;0.69;93.21;98506.29;435131;1256;98014;-40
2023/12/31 05:19:14;;;;;;;55.40;31.20;;;;;;;0.54;93.56;98504.99;435211;1257;112074;-39
2023/12/31 05:29:22;;;;;;;47.20;28.10;;;;;;;0.50;93.66;98492.07;435173;1251;108156;-39
2023/12/31 05:39:28;;;;;;;49.40;31.40;;;;;;;0.49;93.81;98484.02;435175;1251;99297;-39
2023/12/31 05:59:41;;;;;;;52.40;29.30;;;;;;;0.47;94.06;98465.83;435121;1257;99870;-40
2023/12/31 06:09:48;;;;;;;50.00;27.40;;;;;;;0.46;94.40;98460.06;435098;1251;112744;-40
2023/12/31 06:19:55;;;;;;;43.10;25.30;;;;;;;0.43;94.40;98452.73;435078;1251;108475;-39
2023/12/31 06:30:02;;;;;;;52.40;30.60;;;;;;;0.43;94.64;98453.52;435179;1256;99234;-39
2023/12/31 06:40:11;;;;;;;56.90;30.10;;;;;;;0.38;94.52;98441.73;435255;1256;108178;-41
2023/12/31 06:50:18;;;;;;;58.00;32.60;;;;;;;0.29;94.66;98438.08;435097;1251;99389;-40
2023/12/31 07:00:26;;;;;;;66.60;36.40;;;;;;;0.21;94.91;98426.39;435316;1251;111294;-40
2023/12/31 07:10:33;;;;;;;65.30;35.70;;;;;;;0.27;95.01;98423.56;435332;1251;108360;-40
2023/12/31 07:20:41;;;;;;;63.70;37.60;;;;;;;0.35;94.96;98414.35;435292;1251;99314;-40
2023/12/31 07:30:48;;;;;;;82.80;43.70;;;;;;;0.42;95.34;98404.35;435354;1251;108641;-39
2023/12/31 07:40:54;;;;;;;66.00;36.10;;;;;;;0.48;95.60;98387.39;435542;1249;99190;-40
2023/12/31 08:01:09;;;;;;;50.40;30.00;;;;;;;0.98;95.94;98362.06;435405;1251;109591;-40
2023/12/31 08:11:16;;;;;;;48.00;29.30;;;;;;;1.34;96.06;98354.40;435471;1250;99281;-39
2023/12/31 08:21:23;;;;;;;46.60;27.70;;;;;;;1.74;96.05;98355.81;435440;1254;107763;-39
2023/12/31 08:31:30;;;;;;;65.20;34.60;;;;;;;2.12;96.28;98349.36;435273;1250;98864;-38
2023/12/31 08:41:38;;;;;;;63.50;36.40;;;;;;;2.70;96.78;98343.58;435563;1250;111412;-39
2023/12/31 08:51:45;;;;;;;51.10;27.30;;;;;;;3.11;96.31;98339.39;435497;1254;108576;-39
2023/12/31 09:11:59;;;;;;;65.40;34.70;;;;;;;3.79;96.45;98338.67;435439;1254;107773;-39
2023/12/31 09:22:06;;;;;;;72.50;38.60;;;;;;;4.03;96.31;98333.60;435465;1254;99239;-39
2023/12/31 09:32:13;;;;;;;66.10;37.00;;;;;;;4.06;95.85;98322.59;435274;1264;112671;-39
2023/12/31 09:52:30;;;;;;;57.80;32.60;;;;;;;4.18;95.83;98293.36;435347;1254;99291;-39
2023/12/31 10:02:36;;;;;;;71.90;39.60;;;;;;;4.26;95.98;98284.98;435368;1250;107885;-42
2023/12/31 10:12:42;;;;;;;57.50;32.30;;;;;;;4.16;95.67;98275.16;435448;1252;99214;-41
2023/12/31 10:22:46;;;;;;;52.90;29.50;;;;;;;4.19;95.61;98259.14;435377;1250;113057;-40
2023/12/31 10:32:54;;;;;;;50.80;28.00;;;;;;;4.38;95.60;98240.63;435455;1254;107513;-39
2023/12/31 10:53:11;;;;;;;53.70;29.50;;;;;;;4.72;95.59;98207.77;435378;1250;107536;-40
2023/12/31 11:03:18;;;;;;;46.70;26.50;;;;;;;4.81;95.57;98188.58;435433;1253;99221;-40
2023/12/31 11:13:28;;;;;;;42.60;24.20;;;;;;;4.95;95.38;98175.91;435465;1254;111171;-40
2023/12/31 11:23:35;;;;;;;41.70;25.00;;;;;;;5.15;95.30;98156.10;435511;1254;106667;-40
2023/12/31 11:43:48;;;;;;;35.90;20.30;;;;;;;5.49;94.95;98111.32;435378;1250;107477;-40
2023/12/31 12:04:06;;;;;;;40.80;22.80;;;;;;;6.04;94.74;98085.50;435570;1254;112824;-40
2023/12/31 12:14:12;;;;;;;42.90;22.20;;;;;;;6.22;94.12;98071.39;435402;1254;107659;-39
2023/12/31 12:24:19;;;;;;;38.30;20.80;;;;;;;6.41;93.76;98063.69;435338;1254;99212;-39
2023/12/31 12:54:41;;;;;;;43.10;21.80;;;;;;;6.97;93.16;98024.16;435092;1250;487227;-40
2023/12/31 13:04:49;;;;;;;48.50;23.00;;;;;;;7.07;92.92;98009.93;435288;1250;108591;-39
2023/12/31 13:25:00;;;;;;;35.00;18.50;;;;;;;7.28;92.24;97970.92;435111;1256;109908;-40
2023/12/31 13:35:07;;;;;;;42.30;19.50;;;;;;;7.25;92.14;97963.01;435414;1250;99247;-38
2023/12/31 13:45:14;;;;;;;39.10;18.20;;;;;;;7.27;92.18;97953.27;435336;1254;111694;-40
2023/12/31 13:55:21;;;;;;;26.70;14.10;;;;;;;7.16;91.92;97932.85;435283;1250;106335;-38
2023/12/31 14:05:26;;;;;;;36.70;16.90;;;;;;;6.99;91.23;97914.96;435328;1254;99240;-39
2023/12/31 14:15:34;;;;;;;34.30;19.50;;;;;;;6.70;90.92;97893.20;435258;1254;108768;-39
2023/12/31 14:45:52;;;;;;;32.30;15.30;;;;;;;5.65;90.91;97856.17;435180;1256;106786;-39
2023/12/31 14:56:00;;;;;;;30.60;16.60;;;;;;;5.45;90.99;97839.84;435289;1256;99240;-41
2023/12/31 15:16:12;;;;;;;65.80;31.40;;;;;;;5.06;91.17;97841.86;435383;1251;99185;-39
2023/12/31 15:26:19;;;;;;;67.20;31.60;;;;;;;4.82;91.06;97841.09;435487;1251;111466;-39
2023/12/31 15:36:25;;;;;;;79.80;38.90;;;;;;;4.56;91.17;97836.09;435245;1250;108176;-40
2023/12/31 15:46:32;;;;;;;58.60;30.70;;;;;;;4.50;91.35;97825.30;435337;1254;99877;-39
2023/12/31 15:56:40;;;;;;;49.80;26.90;;;;;;;4.62;91.57;97821.68;435237;1254;108424;-39
2023/12/31 16:06:47;;;;;;;42.30;24.00;;;;;;;4.75;91.72;97812.83;435375;1253;99233;-40
2023/12/31 16:16:54;;;;;;;44.70;24.10;;;;;;;4.77;91.45;97805.89;435455;1250;111222;-39
2023/12/31 16:27:00;;;;;;;54.90;28.70;;;;;;;4.70;91.66;97805.19;435277;1256;108251;-38
2023/12/31 16:37:06;;;;;;;75.10;36.80;;;;;;;4.59;91.58;97783.67;435435;1251;99434;-40
2023/12/31 16:47:11;;;;;;;45.40;26.30;;;;;;;4.44;91.41;97780.80;435257;1256;111691;-40
2023/12/31 17:07:23;;;;;;;66.20;38.00;;;;;;;4.22;91.46;97766.27;435382;1251;99314;-40
2023/12/31 17:17:27;;;;;;;122.30;56.60;;;;;;;3.94;91.30;97741.06;435316;1256;110273;-39
2023/12/31 17:27:35;;;;;;;110.30;54.40;;;;;;;3.64;91.43;97726.67;435225;1250;99225;-41
2023/12/31 17:37:42;;;;;;;67.50;44.00;;;;;;;3.53;91.56;97727.79;435356;1253;111891;-40
2023/12/31 17:47:49;;;;;;;69.40;43.10;;;;;;;3.48;91.65;97716.94;435196;1250;109779;-40
2023/12/31 17:57:55;;;;;;;116.40;62.40;;;;;;;3.50;91.85;97716.46;435385;1251;99035;-40
2023/12/31 18:08:03;;;;;;;118.40;61.30;;;;;;;3.39;91.81;97721.80;435554;1253;108528;-42
2023/12/31 18:18:11;;;;;;;136.50;67.00;;;;;;;3.13;91.57;97722.55;435301;1250;98306;-40
2023/12/31 18:38:24;;;;;;;87.70;53.40;;;;;;;2.64;91.16;97737.30;435300;1251;109035;-40
2023/12/31 18:48:31;;;;;;;97.50;52.80;;;;;;;2.48;91.20;97728.39;435286;1257;99311;-39
2023/12/31 18:58:39;;;;;;;95.60;52.70;;;;;;;2.59;92.14;97718.60;435348;1256;113574;-40
2023/12/31 19:08:46;;;;;;;150.60;72.00;;;;;;;2.76;92.05;97717.58;435430;1257;106257;-40
2023/12/31 19:28:59;;;;;;;143.80;74.20;;;;;;;2.56;92.12;97697.98;435486;1264;111465;-39
2023/12/31 19:39:07;;;;;;;96.60;60.00;;;;;;;2.43;91.86;97704.66;435429;1251;107991;-40
2023/12/31 19:59:21;;;;;;;89.40;50.40;;;;;;;2.45;92.15;97704.46;435399;1254;107419;-41
2023/12/31 20:09:28;;;;;;;100.10;55.40;;;;;;;2.65;92.74;97681.01;435344;1251;99300;-41
2023/12/31 20:19:34;;;;;;;122.60;60.00;;;;;;;2.86;93.03;97681.83;435340;1263;111245;-40
2023/12/31 20:49:53;;;;;;;75.70;42.20;;;;;;;3.35;93.43;97662.69;435335;1253;108527;-39
2023/12/31 20:59:59;;;;;;;64.50;40.20;;;;;;;3.48;93.52;97654.59;435356;1264;99227;-40
2023/12/31 21:10:08;;;;;;;48.40;27.70;;;;;;;3.61;93.55;97656.98;435363;1254;111482;-39
2023/12/31 21:30:22;;;;;;;64.30;34.40;;;;;;;3.77;94.01;97642.33;435485;1251;98005;-39
2023/12/31 22:00:41;;;;;;;81.70;39.10;;;;;;;3.60;94.16;97639.83;435106;1254;112410;-38
2023/12/31 22:10:47;;;;;;;65.80;38.60;;;;;;;3.52;94.21;97639.52;435134;1251;108135;-40
2023/12/31 22:20:54;;;;;;;58.00;36.10;;;;;;;3.45;94.15;97640.69;435415;1257;99324;-38
2023/12/31 22:31:01;;;;;;;103.20;51.60;;;;;;;3.34;94.33;97645.25;435369;1253;107280;-39
2023/12/31 22:41:08;;;;;;;86.30;47.50;;;;;;;3.19;94.44;97638.35;435425;1251;97989;-40
2023/12/31 22:51:16;;;;;;;76.50;41.60;;;;;;;3.15;94.48;97633.19;435335;1254;110678;-40
2023/12/31 23:01:27;;;;;;;62.30;37.80;;;;;;;3.14;94.73;97624.23;435114;1251;108294;-39
2023/12/31 23:11:34;;;;;;;140.90;83.80;;;;;;;3.17;94.84;97624.85;435350;1254;99193;-39
2023/12/31 23:21:41;;;;;;;112.80;68.00;;;;;;;3.19;94.93;97624.08;435237;1263;107866;-39
2023/12/31 23:31:48;;;;;;;113.50;64.90;;;;;;;3.21;95.14;97613.61;435267;1251;98802;-38
2023/12/31 23:41:55;;;;;;;104.70;58.70;;;;;;;3.22;94.92;97615.58;435494;1253;112271;-38
2023/12/31 23:52:02;;;;;;;118.10;66.80;;;;;;;3.15;94.86;97616.17;435261;1251;107401;-40
